sensor_id;sensor_type;location;lat;lon;timestamp;P1;durP1;ratioP1;P2;durP2;ratioP2
19364;SDS011;9818;48.382;10.850;2023-05-07T00:02:19;3.40;;;3.10;;
19364;SDS011;9818;48.382;10.850;2023-05-07T00:04:47;3.37;;;3.03;;
19364;SDS011;9818;48.382;10.850;2023-05-07T00:07:17;3.13;;;2.83;;
19364;SDS011;9818;48.382;10.850;2023-05-07T00:09:48;3.00;;;2.80;;
19364;SDS011;9818;48.382;10.850;2023-05-07T00:12:17;3.00;;;2.70;;
19364;SDS011;9818;48.382;10.850;2023-05-07T00:14:45;4.13;;;2.73;;
19364;SDS011;9818;48.382;10.850;2023-05-07T00:17:14;3.37;;;3.07;;
19364;SDS011;9818;48.382;10.850;2023-05-07T00:19:43;3.23;;;2.93;;
19364;SDS011;9818;48.382;10.850;2023-05-07T00:22:11;3.17;;;2.87;;
19364;SDS011;9818;48.382;10.850;2023-05-07T00:24:40;3.67;;;2.80;;
19364;SDS011;9818;48.382;10.850;2023-05-07T00:27:11;3.20;;;2.90;;
19364;SDS011;9818;48.382;10.850;2023-05-07T00:29:40;3.00;;;2.70;;
19364;SDS011;9818;48.382;10.850;2023-05-07T00:32:09;3.03;;;2.70;;
19364;SDS011;9818;48.382;10.850;2023-05-07T00:34:37;3.57;;;3.00;;
19364;SDS011;9818;48.382;10.850;2023-05-07T00:37:06;3.40;;;3.10;;
19364;SDS011;9818;48.382;10.850;2023-05-07T00:39:37;2.90;;;2.70;;
19364;SDS011;9818;48.382;10.850;2023-05-07T00:42:05;3.37;;;3.07;;
19364;SDS011;9818;48.382;10.850;2023-05-07T00:44:37;3.40;;;3.10;;
19364;SDS011;9818;48.382;10.850;2023-05-07T00:47:05;4.17;;;3.17;;
19364;SDS011;9818;48.382;10.850;2023-05-07T00:49:35;3.20;;;2.90;;
19364;SDS011;9818;48.382;10.850;2023-05-07T00:52:06;2.90;;;2.60;;
19364;SDS011;9818;48.382;10.850;2023-05-07T00:54:35;3.53;;;3.23;;
19364;SDS011;9818;48.382;10.850;2023-05-07T00:57:04;3.10;;;2.80;;
19364;SDS011;9818;48.382;10.850;2023-05-07T00:59:33;3.23;;;2.80;;
19364;SDS011;9818;48.382;10.850;2023-05-07T01:02:05;3.43;;;3.13;;
19364;SDS011;9818;48.382;10.850;2023-05-07T01:04:34;3.53;;;3.10;;
19364;SDS011;9818;48.382;10.850;2023-05-07T01:07:03;3.37;;;3.07;;
19364;SDS011;9818;48.382;10.850;2023-05-07T01:09:32;3.93;;;3.37;;
19364;SDS011;9818;48.382;10.850;2023-05-07T01:12:01;3.90;;;3.50;;
19364;SDS011;9818;48.382;10.850;2023-05-07T01:14:32;3.90;;;3.07;;
19364;SDS011;9818;48.382;10.850;2023-05-07T01:17:03;3.47;;;3.10;;
19364;SDS011;9818;48.382;10.850;2023-05-07T01:19:33;3.47;;;3.17;;
19364;SDS011;9818;48.382;10.850;2023-05-07T01:22:02;3.57;;;3.17;;
19364;SDS011;9818;48.382;10.850;2023-05-07T01:24:38;4.40;;;3.30;;
19364;SDS011;9818;48.382;10.850;2023-05-07T01:27:07;3.40;;;3.10;;
19364;SDS011;9818;48.382;10.850;2023-05-07T01:29:35;3.60;;;3.30;;
19364;SDS011;9818;48.382;10.850;2023-05-07T01:32:05;3.40;;;3.07;;
19364;SDS011;9818;48.382;10.850;2023-05-07T01:34:34;3.37;;;2.97;;
19364;SDS011;9818;48.382;10.850;2023-05-07T01:37:05;3.57;;;3.27;;
19364;SDS011;9818;48.382;10.850;2023-05-07T01:39:33;3.40;;;3.10;;
19364;SDS011;9818;48.382;10.850;2023-05-07T01:42:06;3.73;;;3.40;;
19364;SDS011;9818;48.382;10.850;2023-05-07T01:44:35;3.80;;;3.17;;
19364;SDS011;9818;48.382;10.850;2023-05-07T01:47:04;3.77;;;3.47;;
19364;SDS011;9818;48.382;10.850;2023-05-07T01:49:34;3.40;;;3.10;;
19364;SDS011;9818;48.382;10.850;2023-05-07T01:52:03;3.50;;;3.20;;
19364;SDS011;9818;48.382;10.850;2023-05-07T01:54:31;3.60;;;3.30;;
19364;SDS011;9818;48.382;10.850;2023-05-07T01:57:00;3.37;;;2.97;;
19364;SDS011;9818;48.382;10.850;2023-05-07T01:59:32;3.73;;;3.43;;
19364;SDS011;9818;48.382;10.850;2023-05-07T02:02:00;4.77;;;3.20;;
19364;SDS011;9818;48.382;10.850;2023-05-07T02:04:29;3.80;;;3.23;;
19364;SDS011;9818;48.382;10.850;2023-05-07T02:06:58;3.90;;;3.20;;
19364;SDS011;9818;48.382;10.850;2023-05-07T02:09:26;3.20;;;2.90;;
19364;SDS011;9818;48.382;10.850;2023-05-07T02:11:55;3.90;;;3.20;;
19364;SDS011;9818;48.382;10.850;2023-05-07T02:14:24;3.60;;;3.17;;
19364;SDS011;9818;48.382;10.850;2023-05-07T02:16:55;3.43;;;3.13;;
19364;SDS011;9818;48.382;10.850;2023-05-07T02:19:23;3.83;;;3.13;;
19364;SDS011;9818;48.382;10.850;2023-05-07T02:21:52;3.50;;;3.20;;
19364;SDS011;9818;48.382;10.850;2023-05-07T02:24:21;3.20;;;2.90;;
19364;SDS011;9818;48.382;10.850;2023-05-07T02:26:49;3.30;;;3.00;;
19364;SDS011;9818;48.382;10.850;2023-05-07T02:29:18;3.47;;;3.17;;
19364;SDS011;9818;48.382;10.850;2023-05-07T02:31:47;3.23;;;2.93;;
19364;SDS011;9818;48.382;10.850;2023-05-07T02:34:20;3.40;;;3.10;;
19364;SDS011;9818;48.382;10.850;2023-05-07T02:36:49;3.30;;;3.00;;
19364;SDS011;9818;48.382;10.850;2023-05-07T02:39:17;3.23;;;2.93;;
19364;SDS011;9818;48.382;10.850;2023-05-07T02:41:46;3.47;;;3.17;;
19364;SDS011;9818;48.382;10.850;2023-05-07T02:44:15;3.20;;;2.90;;
19364;SDS011;9818;48.382;10.850;2023-05-07T02:46:43;3.40;;;3.10;;
19364;SDS011;9818;48.382;10.850;2023-05-07T02:49:12;3.20;;;2.87;;
19364;SDS011;9818;48.382;10.850;2023-05-07T02:51:43;2.97;;;2.77;;
19364;SDS011;9818;48.382;10.850;2023-05-07T02:54:12;3.50;;;3.20;;
19364;SDS011;9818;48.382;10.850;2023-05-07T02:56:40;3.50;;;3.20;;
19364;SDS011;9818;48.382;10.850;2023-05-07T02:59:09;3.47;;;3.10;;
19364;SDS011;9818;48.382;10.850;2023-05-07T03:01:38;4.10;;;3.10;;
19364;SDS011;9818;48.382;10.850;2023-05-07T03:04:09;3.33;;;3.03;;
19364;SDS011;9818;48.382;10.850;2023-05-07T03:06:38;3.70;;;3.40;;
19364;SDS011;9818;48.382;10.850;2023-05-07T03:09:09;3.17;;;2.87;;
19364;SDS011;9818;48.382;10.850;2023-05-07T03:11:38;3.63;;;3.10;;
19364;SDS011;9818;48.382;10.850;2023-05-07T03:14:06;3.37;;;3.03;;
19364;SDS011;9818;48.382;10.850;2023-05-07T03:16:35;3.50;;;3.20;;
19364;SDS011;9818;48.382;10.850;2023-05-07T03:19:04;3.20;;;2.90;;
19364;SDS011;9818;48.382;10.850;2023-05-07T03:21:32;3.20;;;2.90;;
19364;SDS011;9818;48.382;10.850;2023-05-07T03:24:01;3.50;;;3.10;;
19364;SDS011;9818;48.382;10.850;2023-05-07T03:26:32;3.70;;;3.33;;
19364;SDS011;9818;48.382;10.850;2023-05-07T03:29:01;3.40;;;3.10;;
19364;SDS011;9818;48.382;10.850;2023-05-07T03:31:29;3.13;;;2.93;;
19364;SDS011;9818;48.382;10.850;2023-05-07T03:33:58;3.97;;;3.27;;
19364;SDS011;9818;48.382;10.850;2023-05-07T03:36:27;3.10;;;2.80;;
19364;SDS011;9818;48.382;10.850;2023-05-07T03:38:55;2.80;;;2.60;;
19364;SDS011;9818;48.382;10.850;2023-05-07T03:41:24;3.53;;;3.07;;
19364;SDS011;9818;48.382;10.850;2023-05-07T03:43:57;3.20;;;2.90;;
19364;SDS011;9818;48.382;10.850;2023-05-07T03:46:25;3.60;;;3.23;;
19364;SDS011;9818;48.382;10.850;2023-05-07T03:48:54;4.17;;;3.13;;
19364;SDS011;9818;48.382;10.850;2023-05-07T03:51:23;3.00;;;2.77;;
19364;SDS011;9818;48.382;10.850;2023-05-07T03:53:51;3.30;;;3.00;;
19364;SDS011;9818;48.382;10.850;2023-05-07T03:56:22;3.70;;;3.40;;
19364;SDS011;9818;48.382;10.850;2023-05-07T03:58:51;3.43;;;3.13;;
19364;SDS011;9818;48.382;10.850;2023-05-07T04:01:22;3.70;;;3.10;;
19364;SDS011;9818;48.382;10.850;2023-05-07T04:03:51;3.60;;;3.30;;
19364;SDS011;9818;48.382;10.850;2023-05-07T04:06:20;3.47;;;3.17;;
19364;SDS011;9818;48.382;10.850;2023-05-07T04:08:49;3.30;;;3.00;;
19364;SDS011;9818;48.382;10.850;2023-05-07T04:11:17;3.90;;;3.50;;
19364;SDS011;9818;48.382;10.850;2023-05-07T04:13:46;3.30;;;2.80;;
19364;SDS011;9818;48.382;10.850;2023-05-07T04:16:15;4.57;;;3.30;;
19364;SDS011;9818;48.382;10.850;2023-05-07T04:18:46;3.63;;;3.27;;
19364;SDS011;9818;48.382;10.850;2023-05-07T04:21:15;3.40;;;3.10;;
19364;SDS011;9818;48.382;10.850;2023-05-07T04:23:44;4.10;;;3.70;;
19364;SDS011;9818;48.382;10.850;2023-05-07T04:26:13;3.40;;;3.07;;
19364;SDS011;9818;48.382;10.850;2023-05-07T04:28:42;4.27;;;3.20;;
19364;SDS011;9818;48.382;10.850;2023-05-07T04:31:11;3.70;;;3.40;;
19364;SDS011;9818;48.382;10.850;2023-05-07T04:33:40;3.93;;;3.50;;
19364;SDS011;9818;48.382;10.850;2023-05-07T04:36:11;3.83;;;3.43;;
19364;SDS011;9818;48.382;10.850;2023-05-07T04:38:40;3.53;;;3.23;;
19364;SDS011;9818;48.382;10.850;2023-05-07T04:41:09;3.37;;;3.07;;
19364;SDS011;9818;48.382;10.850;2023-05-07T04:43:38;4.00;;;3.60;;
19364;SDS011;9818;48.382;10.850;2023-05-07T04:46:06;4.00;;;3.23;;
19364;SDS011;9818;48.382;10.850;2023-05-07T04:48:35;3.67;;;3.30;;
19364;SDS011;9818;48.382;10.850;2023-05-07T04:51:04;3.30;;;3.00;;
19364;SDS011;9818;48.382;10.850;2023-05-07T04:53:35;3.97;;;3.40;;
19364;SDS011;9818;48.382;10.850;2023-05-07T04:56:05;3.80;;;3.17;;
19364;SDS011;9818;48.382;10.850;2023-05-07T04:58:34;3.43;;;3.13;;
19364;SDS011;9818;48.382;10.850;2023-05-07T05:01:02;3.83;;;3.30;;
19364;SDS011;9818;48.382;10.850;2023-05-07T05:03:31;4.17;;;3.60;;
19364;SDS011;9818;48.382;10.850;2023-05-07T05:05:59;5.17;;;3.40;;
19364;SDS011;9818;48.382;10.850;2023-05-07T05:08:29;4.37;;;3.30;;
19364;SDS011;9818;48.382;10.850;2023-05-07T05:11:01;3.53;;;3.23;;
19364;SDS011;9818;48.382;10.850;2023-05-07T05:13:29;3.37;;;3.07;;
19364;SDS011;9818;48.382;10.850;2023-05-07T05:15:58;3.50;;;3.20;;
19364;SDS011;9818;48.382;10.850;2023-05-07T05:18:27;3.37;;;3.07;;
19364;SDS011;9818;48.382;10.850;2023-05-07T05:20:55;3.40;;;3.10;;
19364;SDS011;9818;48.382;10.850;2023-05-07T05:23:24;3.40;;;3.10;;
19364;SDS011;9818;48.382;10.850;2023-05-07T05:25:55;3.10;;;2.80;;
19364;SDS011;9818;48.382;10.850;2023-05-07T05:28:26;3.50;;;3.20;;
19364;SDS011;9818;48.382;10.850;2023-05-07T05:30:55;3.50;;;3.20;;
19364;SDS011;9818;48.382;10.850;2023-05-07T05:33:24;3.83;;;3.43;;
19364;SDS011;9818;48.382;10.850;2023-05-07T05:35:53;3.40;;;3.10;;
19364;SDS011;9818;48.382;10.850;2023-05-07T05:38:22;3.50;;;3.20;;
19364;SDS011;9818;48.382;10.850;2023-05-07T05:40:50;3.30;;;3.00;;
19364;SDS011;9818;48.382;10.850;2023-05-07T05:43:19;3.40;;;3.10;;
19364;SDS011;9818;48.382;10.850;2023-05-07T05:45:50;3.40;;;3.10;;
19364;SDS011;9818;48.382;10.850;2023-05-07T05:48:19;3.43;;;3.10;;
19364;SDS011;9818;48.382;10.850;2023-05-07T05:50:48;3.67;;;3.20;;
19364;SDS011;9818;48.382;10.850;2023-05-07T05:53:16;3.20;;;2.90;;
19364;SDS011;9818;48.382;10.850;2023-05-07T05:55:45;4.57;;;3.30;;
19364;SDS011;9818;48.382;10.850;2023-05-07T05:58:14;3.80;;;3.27;;
19364;SDS011;9818;48.382;10.850;2023-05-07T06:00:44;3.23;;;2.93;;
19364;SDS011;9818;48.382;10.850;2023-05-07T06:03:16;3.70;;;3.30;;
19364;SDS011;9818;48.382;10.850;2023-05-07T06:05:45;3.20;;;2.90;;
19364;SDS011;9818;48.382;10.850;2023-05-07T06:08:13;3.20;;;2.90;;
19364;SDS011;9818;48.382;10.850;2023-05-07T06:10:42;3.40;;;3.10;;
19364;SDS011;9818;48.382;10.850;2023-05-07T06:13:11;3.30;;;3.00;;
19364;SDS011;9818;48.382;10.850;2023-05-07T06:15:39;3.90;;;3.50;;
19364;SDS011;9818;48.382;10.850;2023-05-07T06:18:08;3.30;;;3.00;;
19364;SDS011;9818;48.382;10.850;2023-05-07T06:20:39;2.97;;;2.77;;
19364;SDS011;9818;48.382;10.850;2023-05-07T06:23:08;3.33;;;3.03;;
19364;SDS011;9818;48.382;10.850;2023-05-07T06:25:36;3.10;;;2.80;;
19364;SDS011;9818;48.382;10.850;2023-05-07T06:28:05;2.73;;;2.53;;
19364;SDS011;9818;48.382;10.850;2023-05-07T06:30:36;3.50;;;3.20;;
19364;SDS011;9818;48.382;10.850;2023-05-07T06:33:05;3.97;;;3.13;;
19364;SDS011;9818;48.382;10.850;2023-05-07T06:35:34;3.30;;;3.00;;
19364;SDS011;9818;48.382;10.850;2023-05-07T06:38:05;3.40;;;3.10;;
19364;SDS011;9818;48.382;10.850;2023-05-07T06:40:34;3.53;;;2.87;;
19364;SDS011;9818;48.382;10.850;2023-05-07T06:43:02;3.33;;;3.03;;
19364;SDS011;9818;48.382;10.850;2023-05-07T06:45:31;3.60;;;2.70;;
19364;SDS011;9818;48.382;10.850;2023-05-07T06:47:59;3.40;;;3.00;;
19364;SDS011;9818;48.382;10.850;2023-05-07T06:50:28;3.30;;;2.67;;
19364;SDS011;9818;48.382;10.850;2023-05-07T06:52:57;3.23;;;2.93;;
19364;SDS011;9818;48.382;10.850;2023-05-07T06:55:28;3.60;;;3.17;;
19364;SDS011;9818;48.382;10.850;2023-05-07T06:57:57;3.20;;;2.90;;
19364;SDS011;9818;48.382;10.850;2023-05-07T07:00:26;3.57;;;3.13;;
19364;SDS011;9818;48.382;10.850;2023-05-07T07:02:55;3.50;;;3.20;;
19364;SDS011;9818;48.382;10.850;2023-05-07T07:05:24;3.60;;;2.83;;
19364;SDS011;9818;48.382;10.850;2023-05-07T07:07:53;3.27;;;2.97;;
19364;SDS011;9818;48.382;10.850;2023-05-07T07:10:21;3.10;;;2.80;;
19364;SDS011;9818;48.382;10.850;2023-05-07T07:12:53;3.00;;;2.80;;
19364;SDS011;9818;48.382;10.850;2023-05-07T07:15:22;3.40;;;3.10;;
19364;SDS011;9818;48.382;10.850;2023-05-07T07:17:50;3.83;;;3.13;;
19364;SDS011;9818;48.382;10.850;2023-05-07T07:20:19;3.40;;;2.90;;
19364;SDS011;9818;48.382;10.850;2023-05-07T07:22:48;3.40;;;3.10;;
19364;SDS011;9818;48.382;10.850;2023-05-07T07:25:17;3.03;;;2.73;;
19364;SDS011;9818;48.382;10.850;2023-05-07T07:27:45;3.00;;;2.80;;
19364;SDS011;9818;48.382;10.850;2023-05-07T07:30:17;2.90;;;2.60;;
19364;SDS011;9818;48.382;10.850;2023-05-07T07:32:45;3.00;;;2.70;;
19364;SDS011;9818;48.382;10.850;2023-05-07T07:35:14;3.20;;;2.90;;
19364;SDS011;9818;48.382;10.850;2023-05-07T07:37:43;2.63;;;2.43;;
19364;SDS011;9818;48.382;10.850;2023-05-07T07:40:12;2.90;;;2.67;;
19364;SDS011;9818;48.382;10.850;2023-05-07T07:42:41;2.87;;;2.60;;
19364;SDS011;9818;48.382;10.850;2023-05-07T07:45:09;3.30;;;3.00;;
19364;SDS011;9818;48.382;10.850;2023-05-07T07:47:41;2.90;;;2.70;;
19364;SDS011;9818;48.382;10.850;2023-05-07T07:50:10;2.90;;;2.70;;
19364;SDS011;9818;48.382;10.850;2023-05-07T07:52:39;2.77;;;2.57;;
19364;SDS011;9818;48.382;10.850;2023-05-07T07:55:08;3.23;;;2.93;;
19364;SDS011;9818;48.382;10.850;2023-05-07T07:57:37;3.47;;;2.87;;
19364;SDS011;9818;48.382;10.850;2023-05-07T08:00:06;2.80;;;2.60;;
19364;SDS011;9818;48.382;10.850;2023-05-07T08:02:35;3.23;;;2.93;;
19364;SDS011;9818;48.382;10.850;2023-05-07T08:05:07;3.20;;;2.90;;
19364;SDS011;9818;48.382;10.850;2023-05-07T08:07:36;3.33;;;3.03;;
19364;SDS011;9818;48.382;10.850;2023-05-07T08:10:05;3.30;;;3.00;;
19364;SDS011;9818;48.382;10.850;2023-05-07T08:12:34;3.03;;;2.73;;
19364;SDS011;9818;48.382;10.850;2023-05-07T08:15:03;3.67;;;3.00;;
19364;SDS011;9818;48.382;10.850;2023-05-07T08:17:32;2.90;;;2.70;;
19364;SDS011;9818;48.382;10.850;2023-05-07T08:20:01;3.00;;;2.80;;
19364;SDS011;9818;48.382;10.850;2023-05-07T08:22:32;3.20;;;2.90;;
19364;SDS011;9818;48.382;10.850;2023-05-07T08:25:01;2.70;;;2.50;;
19364;SDS011;9818;48.382;10.850;2023-05-07T08:27:30;2.40;;;2.23;;
19364;SDS011;9818;48.382;10.850;2023-05-07T08:29:59;3.00;;;2.80;;
19364;SDS011;9818;48.382;10.850;2023-05-07T08:32:28;3.10;;;2.80;;
19364;SDS011;9818;48.382;10.850;2023-05-07T08:34:56;2.47;;;2.27;;
19364;SDS011;9818;48.382;10.850;2023-05-07T08:37:25;2.70;;;2.47;;
19364;SDS011;9818;48.382;10.850;2023-05-07T08:39:56;2.70;;;2.50;;
19364;SDS011;9818;48.382;10.850;2023-05-07T08:42:25;2.87;;;2.53;;
19364;SDS011;9818;48.382;10.850;2023-05-07T08:44:56;3.03;;;2.83;;
19364;SDS011;9818;48.382;10.850;2023-05-07T08:47:29;2.67;;;2.47;;
19364;SDS011;9818;48.382;10.850;2023-05-07T08:50:07;2.67;;;2.47;;
19364;SDS011;9818;48.382;10.850;2023-05-07T08:52:36;2.57;;;2.37;;
19364;SDS011;9818;48.382;10.850;2023-05-07T08:55:08;2.77;;;2.50;;
19364;SDS011;9818;48.382;10.850;2023-05-07T08:57:37;2.70;;;2.50;;
19364;SDS011;9818;48.382;10.850;2023-05-07T09:00:06;2.60;;;2.40;;
19364;SDS011;9818;48.382;10.850;2023-05-07T09:02:36;2.67;;;2.47;;
19364;SDS011;9818;48.382;10.850;2023-05-07T09:05:05;2.70;;;2.50;;
19364;SDS011;9818;48.382;10.850;2023-05-07T09:07:35;2.47;;;2.27;;
19364;SDS011;9818;48.382;10.850;2023-05-07T09:10:04;2.50;;;2.30;;
19364;SDS011;9818;48.382;10.850;2023-05-07T09:12:37;2.70;;;2.50;;
19364;SDS011;9818;48.382;10.850;2023-05-07T09:15:06;3.70;;;2.53;;
19364;SDS011;9818;48.382;10.850;2023-05-07T09:17:36;2.60;;;2.40;;
19364;SDS011;9818;48.382;10.850;2023-05-07T09:20:06;2.87;;;2.60;;
19364;SDS011;9818;48.382;10.850;2023-05-07T09:22:36;2.67;;;2.47;;
19364;SDS011;9818;48.382;10.850;2023-05-07T09:25:08;2.40;;;2.20;;
19364;SDS011;9818;48.382;10.850;2023-05-07T09:27:37;2.80;;;2.60;;
19364;SDS011;9818;48.382;10.850;2023-05-07T09:30:08;3.00;;;2.80;;
19364;SDS011;9818;48.382;10.850;2023-05-07T09:32:37;2.70;;;2.50;;
19364;SDS011;9818;48.382;10.850;2023-05-07T09:35:08;2.83;;;2.43;;
19364;SDS011;9818;48.382;10.850;2023-05-07T09:37:43;2.63;;;2.43;;
19364;SDS011;9818;48.382;10.850;2023-05-07T09:40:22;2.50;;;2.30;;
19364;SDS011;9818;48.382;10.850;2023-05-07T09:42:52;2.43;;;2.23;;
19364;SDS011;9818;48.382;10.850;2023-05-07T09:45:21;2.70;;;2.50;;
19364;SDS011;9818;48.382;10.850;2023-05-07T09:47:53;3.17;;;2.53;;
19364;SDS011;9818;48.382;10.850;2023-05-07T09:50:26;2.27;;;2.07;;
19364;SDS011;9818;48.382;10.850;2023-05-07T09:52:56;2.50;;;2.30;;
19364;SDS011;9818;48.382;10.850;2023-05-07T09:55:27;2.60;;;2.40;;
19364;SDS011;9818;48.382;10.850;2023-05-07T09:57:56;2.73;;;2.30;;
19364;SDS011;9818;48.382;10.850;2023-05-07T10:00:27;3.53;;;2.33;;
19364;SDS011;9818;48.382;10.850;2023-05-07T10:02:57;2.00;;;1.90;;
19364;SDS011;9818;48.382;10.850;2023-05-07T10:05:28;2.40;;;2.17;;
19364;SDS011;9818;48.382;10.850;2023-05-07T10:07:57;2.47;;;2.27;;
19364;SDS011;9818;48.382;10.850;2023-05-07T10:10:29;2.30;;;2.10;;
19364;SDS011;9818;48.382;10.850;2023-05-07T10:13:00;2.77;;;2.57;;
19364;SDS011;9818;48.382;10.850;2023-05-07T10:15:30;2.67;;;2.47;;
19364;SDS011;9818;48.382;10.850;2023-05-07T10:18:00;2.57;;;2.37;;
19364;SDS011;9818;48.382;10.850;2023-05-07T10:20:30;2.33;;;2.13;;
19364;SDS011;9818;48.382;10.850;2023-05-07T10:23:00;2.20;;;2.00;;
19364;SDS011;9818;48.382;10.850;2023-05-07T10:25:34;2.33;;;2.13;;
19364;SDS011;9818;48.382;10.850;2023-05-07T10:28:04;2.77;;;2.50;;
19364;SDS011;9818;48.382;10.850;2023-05-07T10:30:40;2.13;;;2.03;;
19364;SDS011;9818;48.382;10.850;2023-05-07T10:33:21;2.20;;;2.00;;
19364;SDS011;9818;48.382;10.850;2023-05-07T10:35:55;2.40;;;2.20;;
19364;SDS011;9818;48.382;10.850;2023-05-07T10:38:28;2.13;;;2.00;;
19364;SDS011;9818;48.382;10.850;2023-05-07T10:40:59;2.10;;;1.90;;
19364;SDS011;9818;48.382;10.850;2023-05-07T10:43:39;2.17;;;1.97;;
19364;SDS011;9818;48.382;10.850;2023-05-07T10:46:10;2.30;;;2.10;;
19364;SDS011;9818;48.382;10.850;2023-05-07T10:51:36;2.07;;;1.97;;
19364;SDS011;9818;48.382;10.850;2023-05-07T10:56:52;2.40;;;2.20;;
19364;SDS011;9818;48.382;10.850;2023-05-07T10:59:30;2.07;;;1.93;;
19364;SDS011;9818;48.382;10.850;2023-05-07T11:02:07;2.30;;;2.10;;
19364;SDS011;9818;48.382;10.850;2023-05-07T11:04:39;1.87;;;1.77;;
19364;SDS011;9818;48.382;10.850;2023-05-07T11:10:01;1.90;;;1.80;;
19364;SDS011;9818;48.382;10.850;2023-05-07T11:12:49;2.10;;;2.00;;
19364;SDS011;9818;48.382;10.850;2023-05-07T11:18:04;2.10;;;2.00;;
19364;SDS011;9818;48.382;10.850;2023-05-07T11:20:46;2.10;;;1.90;;
19364;SDS011;9818;48.382;10.850;2023-05-07T11:26:18;2.07;;;1.87;;
19364;SDS011;9818;48.382;10.850;2023-05-07T11:28:49;1.90;;;1.80;;
19364;SDS011;9818;48.382;10.850;2023-05-07T11:31:23;2.10;;;1.90;;
19364;SDS011;9818;48.382;10.850;2023-05-07T11:33:54;2.00;;;1.90;;
19364;SDS011;9818;48.382;10.850;2023-05-07T11:36:24;2.00;;;1.90;;
19364;SDS011;9818;48.382;10.850;2023-05-07T11:38:52;2.00;;;1.80;;
19364;SDS011;9818;48.382;10.850;2023-05-07T11:41:21;2.10;;;2.00;;
19364;SDS011;9818;48.382;10.850;2023-05-07T11:43:56;2.37;;;2.17;;
19364;SDS011;9818;48.382;10.850;2023-05-07T11:46:26;1.93;;;1.83;;
19364;SDS011;9818;48.382;10.850;2023-05-07T11:48:56;1.90;;;1.77;;
19364;SDS011;9818;48.382;10.850;2023-05-07T11:51:25;2.13;;;2.00;;
19364;SDS011;9818;48.382;10.850;2023-05-07T11:53:54;1.83;;;1.73;;
19364;SDS011;9818;48.382;10.850;2023-05-07T11:56:22;2.00;;;1.90;;
19364;SDS011;9818;48.382;10.850;2023-05-07T11:58:51;1.93;;;1.80;;
19364;SDS011;9818;48.382;10.850;2023-05-07T12:01:22;1.93;;;1.83;;
19364;SDS011;9818;48.382;10.850;2023-05-07T12:03:51;2.10;;;1.90;;
19364;SDS011;9818;48.382;10.850;2023-05-07T12:06:19;1.90;;;1.80;;
19364;SDS011;9818;48.382;10.850;2023-05-07T12:08:48;2.03;;;1.93;;
19364;SDS011;9818;48.382;10.850;2023-05-07T12:11:23;2.00;;;1.90;;
19364;SDS011;9818;48.382;10.850;2023-05-07T12:13:53;2.10;;;1.90;;
19364;SDS011;9818;48.382;10.850;2023-05-07T12:16:25;1.70;;;1.60;;
19364;SDS011;9818;48.382;10.850;2023-05-07T12:18:54;2.17;;;1.97;;
19364;SDS011;9818;48.382;10.850;2023-05-07T12:21:24;1.80;;;1.70;;
19364;SDS011;9818;48.382;10.850;2023-05-07T12:23:52;1.97;;;1.80;;
19364;SDS011;9818;48.382;10.850;2023-05-07T12:26:22;2.00;;;1.90;;
19364;SDS011;9818;48.382;10.850;2023-05-07T12:28:50;2.10;;;2.00;;
19364;SDS011;9818;48.382;10.850;2023-05-07T12:31:19;1.70;;;1.60;;
19364;SDS011;9818;48.382;10.850;2023-05-07T12:33:51;1.90;;;1.80;;
19364;SDS011;9818;48.382;10.850;2023-05-07T12:36:19;1.77;;;1.67;;
19364;SDS011;9818;48.382;10.850;2023-05-07T12:38:49;2.03;;;1.93;;
19364;SDS011;9818;48.382;10.850;2023-05-07T12:41:18;1.80;;;1.70;;
19364;SDS011;9818;48.382;10.850;2023-05-07T12:43:51;1.90;;;1.80;;
19364;SDS011;9818;48.382;10.850;2023-05-07T12:46:24;1.90;;;1.80;;
19364;SDS011;9818;48.382;10.850;2023-05-07T12:48:55;2.13;;;1.90;;
19364;SDS011;9818;48.382;10.850;2023-05-07T12:51:24;1.90;;;1.80;;
19364;SDS011;9818;48.382;10.850;2023-05-07T12:53:55;1.70;;;1.60;;
19364;SDS011;9818;48.382;10.850;2023-05-07T12:56:24;1.87;;;1.77;;
19364;SDS011;9818;48.382;10.850;2023-05-07T12:58:56;1.80;;;1.70;;
19364;SDS011;9818;48.382;10.850;2023-05-07T13:01:28;1.80;;;1.70;;
19364;SDS011;9818;48.382;10.850;2023-05-07T13:04:02;1.90;;;1.80;;
19364;SDS011;9818;48.382;10.850;2023-05-07T13:06:32;1.70;;;1.60;;
19364;SDS011;9818;48.382;10.850;2023-05-07T13:09:00;1.67;;;1.57;;
19364;SDS011;9818;48.382;10.850;2023-05-07T13:11:29;2.00;;;1.90;;
19364;SDS011;9818;48.382;10.850;2023-05-07T13:13:58;1.80;;;1.70;;
19364;SDS011;9818;48.382;10.850;2023-05-07T13:16:27;1.53;;;1.43;;
19364;SDS011;9818;48.382;10.850;2023-05-07T13:18:55;1.70;;;1.60;;
19364;SDS011;9818;48.382;10.850;2023-05-07T13:21:26;1.90;;;1.80;;
19364;SDS011;9818;48.382;10.850;2023-05-07T13:23:56;1.80;;;1.70;;
19364;SDS011;9818;48.382;10.850;2023-05-07T13:26:25;1.93;;;1.83;;
19364;SDS011;9818;48.382;10.850;2023-05-07T13:28:54;2.00;;;1.77;;
19364;SDS011;9818;48.382;10.850;2023-05-07T13:31:23;1.93;;;1.83;;
19364;SDS011;9818;48.382;10.850;2023-05-07T13:33:52;2.00;;;1.80;;
19364;SDS011;9818;48.382;10.850;2023-05-07T13:36:21;2.00;;;1.80;;
19364;SDS011;9818;48.382;10.850;2023-05-07T13:38:53;1.90;;;1.80;;
19364;SDS011;9818;48.382;10.850;2023-05-07T13:41:21;1.70;;;1.60;;
19364;SDS011;9818;48.382;10.850;2023-05-07T13:43:50;1.97;;;1.87;;
19364;SDS011;9818;48.382;10.850;2023-05-07T13:46:18;1.70;;;1.60;;
19364;SDS011;9818;48.382;10.850;2023-05-07T13:48:47;1.67;;;1.57;;
19364;SDS011;9818;48.382;10.850;2023-05-07T13:51:18;2.00;;;1.80;;
19364;SDS011;9818;48.382;10.850;2023-05-07T13:53:47;1.80;;;1.70;;
19364;SDS011;9818;48.382;10.850;2023-05-07T13:56:20;1.90;;;1.80;;
19364;SDS011;9818;48.382;10.850;2023-05-07T13:58:48;1.97;;;1.80;;
19364;SDS011;9818;48.382;10.850;2023-05-07T14:01:17;1.93;;;1.80;;
19364;SDS011;9818;48.382;10.850;2023-05-07T14:03:45;1.80;;;1.70;;
19364;SDS011;9818;48.382;10.850;2023-05-07T14:06:14;1.97;;;1.80;;
19364;SDS011;9818;48.382;10.850;2023-05-07T14:08:43;1.90;;;1.80;;
19364;SDS011;9818;48.382;10.850;2023-05-07T14:11:11;1.80;;;1.70;;
19364;SDS011;9818;48.382;10.850;2023-05-07T14:13:43;1.80;;;1.63;;
19364;SDS011;9818;48.382;10.850;2023-05-07T14:16:11;1.90;;;1.80;;
19364;SDS011;9818;48.382;10.850;2023-05-07T14:18:40;1.77;;;1.67;;
19364;SDS011;9818;48.382;10.850;2023-05-07T14:21:08;2.00;;;1.90;;
19364;SDS011;9818;48.382;10.850;2023-05-07T14:23:37;1.80;;;1.70;;
19364;SDS011;9818;48.382;10.850;2023-05-07T14:26:06;1.63;;;1.53;;
19364;SDS011;9818;48.382;10.850;2023-05-07T14:28:35;1.70;;;1.60;;
19364;SDS011;9818;48.382;10.850;2023-05-07T14:31:07;1.93;;;1.70;;
19364;SDS011;9818;48.382;10.850;2023-05-07T14:33:35;1.60;;;1.50;;
19364;SDS011;9818;48.382;10.850;2023-05-07T14:36:04;1.80;;;1.70;;
19364;SDS011;9818;48.382;10.850;2023-05-07T14:38:33;1.70;;;1.60;;
19364;SDS011;9818;48.382;10.850;2023-05-07T14:41:02;1.83;;;1.73;;
19364;SDS011;9818;48.382;10.850;2023-05-07T14:43:30;1.53;;;1.43;;
19364;SDS011;9818;48.382;10.850;2023-05-07T14:45:59;1.77;;;1.67;;
19364;SDS011;9818;48.382;10.850;2023-05-07T14:48:30;1.93;;;1.67;;
19364;SDS011;9818;48.382;10.850;2023-05-07T14:50:59;1.70;;;1.60;;
19364;SDS011;9818;48.382;10.850;2023-05-07T14:53:27;2.33;;;1.80;;
19364;SDS011;9818;48.382;10.850;2023-05-07T14:55:56;2.53;;;1.70;;
19364;SDS011;9818;48.382;10.850;2023-05-07T14:58:25;2.50;;;1.90;;
19364;SDS011;9818;48.382;10.850;2023-05-07T15:00:54;2.73;;;1.60;;
19364;SDS011;9818;48.382;10.850;2023-05-07T15:03:22;2.87;;;1.73;;
19364;SDS011;9818;48.382;10.850;2023-05-07T15:05:53;2.20;;;2.00;;
19364;SDS011;9818;48.382;10.850;2023-05-07T15:08:22;1.70;;;1.60;;
19364;SDS011;9818;48.382;10.850;2023-05-07T15:10:51;3.70;;;1.60;;
19364;SDS011;9818;48.382;10.850;2023-05-07T15:13:20;1.63;;;1.53;;
19364;SDS011;9818;48.382;10.850;2023-05-07T15:15:49;1.57;;;1.47;;
19364;SDS011;9818;48.382;10.850;2023-05-07T15:18:18;2.03;;;1.70;;